Time;durP1;ratioP1;P1;durP2;ratioP2;P2;SDS_P1;SDS_P2;PMS_P1;PMS_P2;Temp;Humidity;BMP_temperature;BMP_pressure;BME280_temperature;BME280_humidity;BME280_pressure;Samples;Min_cycle;Max_cycle;Signal;HPM_P1;HPM_P2
2022/11/16 00:02:23;;;;;;;3.80;2.80;;;12.80;99.90;;;;;;4991023;28;20427;-72
2022/11/16 00:04:49;;;;;;;2.93;2.63;;;12.70;99.90;;;;;;4963059;28;20456;-72
2022/11/16 00:07:19;;;;;;;5.43;2.80;;;12.80;99.90;;;;;;4986919;28;21030;-72
2022/11/16 00:09:46;;;;;;;3.30;2.83;;;12.80;99.90;;;;;;4990886;28;20678;-72
2022/11/16 00:12:12;;;;;;;3.60;2.90;;;12.80;99.90;;;;;;4990353;28;20464;-72
2022/11/16 00:14:37;;;;;;;3.67;3.00;;;12.80;99.90;;;;;;4974682;28;20441;-72
2022/11/16 00:17:04;;;;;;;4.80;2.70;;;12.80;99.90;;;;;;4990823;28;20435;-72
2022/11/16 00:19:32;;;;;;;3.90;2.83;;;12.80;99.90;;;;;;5006660;28;20207;-72
2022/11/16 00:21:58;;;;;;;5.63;3.10;;;12.80;99.90;;;;;;4991951;28;20421;-72
2022/11/16 00:24:29;;;;;;;3.20;2.37;;;12.80;99.90;;;;;;4990505;28;20993;-72
2022/11/16 00:26:55;;;;;;;3.60;2.67;;;12.80;99.90;;;;;;4989945;28;20914;-72
2022/11/16 00:29:23;;;;;;;2.80;2.43;;;12.80;99.90;;;;;;5006728;28;20461;-72
2022/11/16 00:31:52;;;;;;;3.03;2.73;;;12.80;99.90;;;;;;4990444;28;20412;-72
2022/11/16 00:34:21;;;;;;;3.37;3.03;;;12.70;99.90;;;;;;5006807;28;20406;-72
2022/11/16 00:36:49;;;;;;;3.30;2.83;;;12.80;99.90;;;;;;4973918;28;20474;-72
2022/11/16 00:39:18;;;;;;;3.00;2.70;;;12.80;99.90;;;;;;4974503;28;20450;-72
2022/11/16 00:41:45;;;;;;;3.50;3.00;;;12.80;99.90;;;;;;4958527;28;20440;-72
2022/11/16 00:44:14;;;;;;;4.17;3.40;;;12.80;99.90;;;;;;4991809;28;20444;-72
2022/11/16 00:46:40;;;;;;;3.80;2.90;;;12.80;99.90;;;;;;4971004;28;20434;-72
2022/11/16 00:49:10;;;;;;;2.80;2.40;;;12.80;99.90;;;;;;4987186;28;20537;-72
2022/11/16 00:51:38;;;;;;;3.57;3.00;;;12.80;99.90;;;;;;4982897;28;20950;-72
2022/11/16 00:54:09;;;;;;;4.30;3.23;;;12.80;99.90;;;;;;4992023;28;20433;-72
2022/11/16 00:56:36;;;;;;;2.90;2.70;;;12.80;99.90;;;;;;4974546;28;20522;-72
2022/11/16 00:59:05;;;;;;;3.87;3.07;;;12.80;99.90;;;;;;4991274;28;20528;-72
2022/11/16 01:01:35;;;;;;;3.10;2.57;;;12.80;99.90;;;;;;5003025;28;21237;-72
2022/11/16 01:04:01;;;;;;;4.83;2.70;;;12.80;99.90;;;;;;4994558;28;20929;-72
2022/11/16 01:06:29;;;;;;;3.90;3.10;;;12.80;99.90;;;;;;4990167;28;20455;-72
2022/11/16 01:09:04;;;;;;;3.77;2.90;;;12.80;99.90;;;;;;4974294;28;20799;-72
2022/11/16 01:14:15;;;;;;;3.10;2.80;;;12.80;99.90;;;;;;4994026;28;20460;-72
2022/11/16 01:16:43;;;;;;;3.60;2.57;;;12.80;99.90;;;;;;4993715;28;20530;-72
2022/11/16 01:19:10;;;;;;;3.90;3.07;;;12.80;99.90;;;;;;5009636;28;20557;-72
2022/11/16 01:21:41;;;;;;;3.97;2.97;;;12.80;99.90;;;;;;4977775;28;20430;-72
2022/11/16 01:24:07;;;;;;;4.30;3.00;;;12.80;99.90;;;;;;4993396;28;20431;-72
2022/11/16 01:26:33;;;;;;;3.70;2.87;;;12.80;99.90;;;;;;5009937;28;20952;-72
2022/11/16 01:29:01;;;;;;;3.33;3.03;;;12.80;99.90;;;;;;4993509;28;20957;-72
2022/11/16 01:31:31;;;;;;;3.13;2.60;;;12.80;99.90;;;;;;4977137;28;20438;-72
2022/11/16 01:34:01;;;;;;;4.40;3.03;;;12.80;99.90;;;;;;5009976;28;20401;-72
2022/11/16 01:36:28;;;;;;;5.60;3.40;;;12.80;99.90;;;;;;4992707;28;20459;-72
2022/11/16 01:38:56;;;;;;;5.07;3.00;;;12.80;99.90;;;;;;4992480;28;21012;-72
2022/11/16 01:41:28;;;;;;;3.60;2.97;;;12.80;99.90;;;;;;4993162;28;20790;-72
2022/11/16 01:44:27;;;;;;;3.00;2.50;;;12.80;99.90;;;;;;4977200;28;20523;-72
2022/11/16 01:47:04;;;;;;;4.33;3.33;;;12.80;99.90;;;;;;4993203;28;20443;-72
2022/11/16 01:49:36;;;;;;;3.33;2.90;;;12.80;99.90;;;;;;4973069;28;20449;-72
2022/11/16 01:52:09;;;;;;;3.43;2.70;;;12.80;99.90;;;;;;4958599;28;20931;-72
2022/11/16 01:54:43;;;;;;;4.17;3.47;;;12.80;99.90;;;;;;4990003;28;20472;-72
2022/11/16 01:57:15;;;;;;;4.00;3.00;;;12.80;99.90;;;;;;4959485;28;20466;-72
2022/11/16 01:59:59;;;;;;;3.23;2.93;;;12.80;99.90;;;;;;4993088;28;20449;-72
2022/11/16 02:02:28;;;;;;;4.10;3.27;;;12.80;99.90;;;;;;4992848;28;20538;-72
2022/11/16 02:04:57;;;;;;;3.97;3.50;;;12.80;99.90;;;;;;5009187;28;20478;-72
2022/11/16 02:11:14;;;;;;;3.20;2.90;;;12.80;99.90;;;;;;4992181;28;20552;-72
2022/11/16 02:14:23;;;;;;;4.53;3.27;;;12.80;99.90;;;;;;4960713;28;20456;-72
2022/11/16 02:17:01;;;;;;;4.10;3.23;;;12.70;99.90;;;;;;4992384;28;20439;-72
2022/11/16 02:19:59;;;;;;;4.17;3.27;;;12.70;99.90;;;;;;4992253;28;20528;-72
2022/11/16 02:22:46;;;;;;;3.60;2.80;;;12.70;99.90;;;;;;5008165;28;20421;-72
2022/11/16 02:25:50;;;;;;;3.97;2.90;;;12.70;99.90;;;;;;5008850;28;20549;-72
2022/11/16 02:28:49;;;;;;;4.07;2.57;;;12.70;99.90;;;;;;5008302;28;20439;-72
2022/11/16 02:31:23;;;;;;;3.10;2.70;;;12.80;99.90;;;;;;4992312;28;20456;-72
2022/11/16 02:33:55;;;;;;;4.60;2.60;;;12.70;99.90;;;;;;4992639;28;20443;-72
2022/11/16 02:36:26;;;;;;;3.27;2.40;;;12.70;99.90;;;;;;5008433;28;20925;-72
2022/11/16 02:39:01;;;;;;;4.20;3.30;;;12.70;99.90;;;;;;4992068;28;20410;-72
2022/11/16 02:41:32;;;;;;;2.90;2.60;;;12.70;99.90;;;;;;5008260;28;20431;-72
2022/11/16 02:44:17;;;;;;;4.60;3.20;;;12.70;99.90;;;;;;4992147;28;20462;-72
2022/11/16 02:46:49;;;;;;;3.13;2.73;;;12.70;99.90;;;;;;4991203;28;20424;-72
2022/11/16 02:49:24;;;;;;;3.40;2.60;;;12.70;99.90;;;;;;4975645;28;20479;-72
2022/11/16 02:51:58;;;;;;;3.47;2.70;;;12.80;99.90;;;;;;4991489;28;20469;-72
2022/11/16 02:54:27;;;;;;;3.23;2.90;;;12.70;99.90;;;;;;4976117;28;20405;-72
2022/11/16 02:57:01;;;;;;;4.10;2.83;;;12.70;99.90;;;;;;4975719;28;20848;-72
2022/11/16 02:59:50;;;;;;;3.03;2.70;;;12.70;99.90;;;;;;4991731;28;20992;-72
2022/11/16 03:02:47;;;;;;;2.97;2.50;;;12.70;99.90;;;;;;5007525;28;20438;-72
2022/11/16 03:05:35;;;;;;;2.80;2.60;;;12.70;99.90;;;;;;5008203;28;20496;-72
2022/11/16 03:08:20;;;;;;;4.70;2.60;;;12.70;99.90;;;;;;5007208;28;20449;-72
2022/11/16 03:13:46;;;;;;;5.60;3.10;;;12.70;99.90;;;;;;4988520;28;20781;-72
2022/11/16 03:16:36;;;;;;;3.67;2.80;;;12.80;99.90;;;;;;5062707;22;20632;-73
2022/11/16 03:19:16;;;;;;;4.23;3.30;;;12.70;99.90;;;;;;5018082;28;20586;-72
2022/11/16 03:21:58;;;;;;;3.60;3.27;;;12.80;99.90;;;;;;4979025;28;20419;-71
2022/11/16 03:24:24;;;;;;;4.50;2.80;;;12.80;99.90;;;;;;5011622;28;21011;-73
2022/11/16 03:27:11;;;;;;;5.37;3.40;;;12.70;99.90;;;;;;5011650;28;20412;-73
2022/11/16 03:29:51;;;;;;;3.40;3.10;;;12.70;99.90;;;;;;5027824;28;20459;-73
2022/11/16 03:32:41;;;;;;;3.90;2.70;;;12.70;99.90;;;;;;5027517;28;20423;-73
2022/11/16 03:35:28;;;;;;;2.60;2.23;;;12.70;99.90;;;;;;5011568;28;20526;-73
2022/11/16 03:38:01;;;;;;;3.90;3.07;;;12.70;99.90;;;;;;5011163;28;20435;-73
2022/11/16 03:40:30;;;;;;;2.80;2.50;;;12.70;99.90;;;;;;5011251;28;20793;-73
2022/11/16 03:43:01;;;;;;;3.83;2.60;;;12.70;99.90;;;;;;5011224;28;20429;-73
2022/11/16 03:45:28;;;;;;;4.37;2.90;;;12.70;99.90;;;;;;5027679;28;20479;-73
2022/11/16 03:47:59;;;;;;;11.20;3.17;;;12.70;99.90;;;;;;4995549;28;20421;-73
2022/11/16 03:50:28;;;;;;;3.10;2.33;;;12.70;99.90;;;;;;5027348;28;20450;-73
2022/11/16 03:52:56;;;;;;;5.70;2.90;;;12.70;99.90;;;;;;5010901;28;20455;-73
2022/11/16 03:55:23;;;;;;;3.30;3.00;;;12.70;99.90;;;;;;4994799;28;20433;-73
2022/11/16 03:57:48;;;;;;;2.80;2.57;;;12.70;99.90;;;;;;5011085;28;20421;-73
2022/11/16 04:00:20;;;;;;;3.90;2.67;;;12.70;99.90;;;;;;5026923;28;20502;-73
2022/11/16 04:02:45;;;;;;;4.20;2.40;;;12.80;99.90;;;;;;5010906;28;20425;-73
2022/11/16 04:25:09;;;;;;;3.57;2.90;;;12.80;99.90;;;;;;5010604;28;20501;-73
2022/11/16 04:37:47;;;;;;;2.83;2.63;;;12.70;99.90;;;;;;4994198;28;20796;-73
2022/11/16 04:38:42;;;;;;;3.57;3.20;;;12.70;99.90;;;;;;5010313;28;20432;-73
2022/11/16 04:42:13;;;;;;;4.40;2.93;;;12.70;99.90;;;;;;4994165;28;20451;-73
2022/11/16 04:43:56;;;;;;;2.60;2.30;;;12.70;99.90;;;;;;4994508;28;20779;-73
2022/11/16 04:49:07;;;;;;;3.30;3.00;;;12.70;99.90;;;;;;5014121;28;20839;-73
2022/11/16 04:51:33;;;;;;;4.20;3.27;;;12.70;99.90;;;;;;5013687;28;20431;-73
2022/11/16 04:54:04;;;;;;;4.87;3.17;;;12.70;99.90;;;;;;4998104;28;20857;-73
2022/11/16 04:56:32;;;;;;;3.07;2.73;;;12.70;99.90;;;;;;5030500;28;20510;-73
2022/11/16 04:58:59;;;;;;;7.00;2.73;;;12.70;99.90;;;;;;5014352;28;20426;-73
2022/11/16 05:04:12;;;;;;;3.53;2.67;;;12.70;99.90;;;;;;5014041;28;20440;-73
2022/11/16 05:06:38;;;;;;;4.80;2.83;;;12.70;99.90;;;;;;5015390;28;20424;-73
2022/11/16 05:09:06;;;;;;;3.57;3.03;;;12.70;99.90;;;;;;4997848;28;20474;-73
2022/11/16 05:11:34;;;;;;;4.27;2.50;;;12.70;99.90;;;;;;4981669;28;20445;-73
2022/11/16 05:14:11;;;;;;;3.50;3.20;;;12.70;99.90;;;;;;5013904;28;20536;-73
2022/11/16 05:16:41;;;;;;;3.77;3.13;;;12.70;99.90;;;;;;5030240;28;20442;-73
2022/11/16 05:22:00;;;;;;;2.97;2.73;;;12.70;99.90;;;;;;5013607;28;20427;-72
2022/11/16 05:24:32;;;;;;;3.30;2.77;;;12.70;99.90;;;;;;5013969;28;20490;-73
2022/11/16 05:27:05;;;;;;;4.30;2.87;;;12.70;99.90;;;;;;5013738;28;20457;-73
2022/11/16 05:29:32;;;;;;;3.20;2.87;;;12.80;99.90;;;;;;4996465;28;20495;-73
2022/11/16 05:31:59;;;;;;;3.27;2.40;;;12.70;99.90;;;;;;4980871;28;20528;-73
2022/11/16 05:34:26;;;;;;;3.43;2.83;;;12.70;99.90;;;;;;5013493;28;20518;-72
2022/11/16 05:36:55;;;;;;;3.13;2.83;;;12.70;99.90;;;;;;4997066;28;20470;-73
2022/11/16 05:39:23;;;;;;;2.83;2.50;;;12.70;99.90;;;;;;5013836;28;20944;-72
2022/11/16 05:41:56;;;;;;;6.23;3.70;;;12.70;99.90;;;;;;4991176;28;21129;-73
2022/11/16 05:44:29;;;;;;;2.80;2.50;;;12.70;99.90;;;;;;4997496;28;20855;-73
2022/11/16 05:46:55;;;;;;;3.50;3.00;;;12.70;99.90;;;;;;5013592;28;20904;-76
2022/11/16 05:49:25;;;;;;;3.77;2.70;;;12.70;99.90;;;;;;5013723;28;20456;-73
2022/11/16 05:51:53;;;;;;;4.67;2.73;;;12.70;99.90;;;;;;5013461;28;20426;-72
2022/11/16 05:54:52;;;;;;;2.97;2.17;;;12.70;99.90;;;;;;4998492;28;20784;-72
2022/11/16 05:57:20;;;;;;;2.80;2.50;;;12.70;99.90;;;;;;5012630;28;20446;-72
2022/11/16 06:00:07;;;;;;;2.40;2.10;;;12.70;99.90;;;;;;5014035;28;20497;-72
2022/11/16 06:02:44;;;;;;;2.50;1.90;;;12.70;99.90;;;;;;5006633;28;20593;-73
2022/11/16 06:05:20;;;;;;;4.70;2.50;;;12.70;99.90;;;;;;5013368;28;21021;-72
2022/11/16 06:07:49;;;;;;;2.43;2.17;;;12.70;99.90;;;;;;4998106;28;20433;-72
2022/11/16 06:10:15;;;;;;;3.20;2.60;;;12.70;99.90;;;;;;4997397;28;20543;-73
2022/11/16 06:12:44;;;;;;;3.43;2.27;;;12.70;99.90;;;;;;4996930;28;20457;-73
2022/11/16 06:15:14;;;;;;;2.93;2.20;;;12.70;99.90;;;;;;5013218;28;20515;-74
2022/11/16 06:17:43;;;;;;;2.50;2.30;;;12.70;99.90;;;;;;5009939;28;20444;-74
2022/11/16 06:20:13;;;;;;;3.13;2.70;;;12.80;99.90;;;;;;5013052;28;20772;-73
2022/11/16 06:22:49;;;;;;;2.33;1.80;;;12.70;99.90;;;;;;5026975;28;20824;-74
2022/11/16 06:25:16;;;;;;;2.77;2.03;;;12.70;99.90;;;;;;5013083;28;20463;-73
2022/11/16 06:27:45;;;;;;;2.77;2.37;;;12.70;99.90;;;;;;5012894;28;20461;-73
2022/11/16 06:30:15;;;;;;;2.30;2.10;;;12.70;99.90;;;;;;5012347;28;20444;-73
2022/11/16 06:32:44;;;;;;;3.17;2.50;;;12.70;99.90;;;;;;5029207;28;20412;-73
2022/11/16 06:35:15;;;;;;;2.67;2.40;;;12.70;99.90;;;;;;5012790;28;20439;-72
2022/11/16 06:37:43;;;;;;;2.80;2.33;;;12.70;99.90;;;;;;5009610;28;20762;-73
2022/11/16 06:40:12;;;;;;;2.57;2.37;;;12.70;99.90;;;;;;4993842;28;20468;-73
2022/11/16 06:42:41;;;;;;;1.80;1.70;;;12.70;99.90;;;;;;4986945;28;20487;-73
2022/11/16 06:45:12;;;;;;;3.53;2.03;;;12.70;99.90;;;;;;5011589;28;20571;-72
2022/11/16 06:47:42;;;;;;;2.77;2.17;;;12.70;99.90;;;;;;5011823;28;20451;-73
2022/11/16 06:50:08;;;;;;;3.40;2.20;;;12.70;99.90;;;;;;4996248;28;20484;-73
2022/11/16 06:52:36;;;;;;;2.53;1.90;;;12.70;99.90;;;;;;4980638;28;20416;-73
2022/11/16 06:55:06;;;;;;;2.73;2.20;;;12.70;99.90;;;;;;4996370;28;20413;-73
2022/11/16 06:57:36;;;;;;;2.37;1.97;;;12.70;99.90;;;;;;5012684;28;20921;-72
2022/11/16 07:00:05;;;;;;;2.40;2.20;;;12.70;99.90;;;;;;4996191;28;20856;-73
2022/11/16 07:02:38;;;;;;;2.90;1.80;;;12.70;99.90;;;;;;5012883;28;20398;-73
2022/11/16 07:05:06;;;;;;;2.03;1.80;;;12.70;99.90;;;;;;5012252;28;20451;-73
2022/11/16 07:07:32;;;;;;;2.93;1.93;;;12.70;99.90;;;;;;5012318;28;20454;-72
2022/11/16 07:09:58;;;;;;;2.60;2.17;;;12.70;99.90;;;;;;5011983;28;20478;-73
2022/11/16 07:12:29;;;;;;;2.23;2.03;;;12.70;99.90;;;;;;5013487;28;20877;-73
2022/11/16 07:14:56;;;;;;;2.13;1.70;;;12.60;99.90;;;;;;5012233;28;20462;-72
2022/11/16 07:17:24;;;;;;;2.97;2.40;;;12.60;99.90;;;;;;5012097;28;20463;-73
2022/11/16 07:19:51;;;;;;;2.33;1.60;;;12.60;99.90;;;;;;4995888;28;20971;-73
2022/11/16 07:22:17;;;;;;;3.20;2.00;;;12.60;99.90;;;;;;4979758;28;20426;-73
2022/11/16 07:24:43;;;;;;;4.13;2.53;;;12.60;99.90;;;;;;4995932;28;21061;-73
2022/11/16 07:27:12;;;;;;;4.07;1.90;;;12.60;99.90;;;;;;4995899;28;20431;-73
2022/11/16 07:29:45;;;;;;;2.93;2.40;;;12.60;99.90;;;;;;5012032;28;20960;-73
2022/11/16 07:32:22;;;;;;;2.83;2.10;;;12.60;99.90;;;;;;5028519;28;20418;-73
2022/11/16 07:35:06;;;;;;;2.30;2.00;;;12.70;99.90;;;;;;5026405;28;20475;-73
2022/11/16 07:37:34;;;;;;;2.30;2.10;;;12.60;99.90;;;;;;5013474;28;20497;-73
2022/11/16 07:40:03;;;;;;;3.47;2.10;;;12.60;99.90;;;;;;4979088;28;20498;-72
2022/11/16 07:42:30;;;;;;;2.37;2.00;;;12.60;99.90;;;;;;4995514;28;20403;-72
2022/11/16 07:45:19;;;;;;;3.00;2.03;;;12.60;99.90;;;;;;5014935;28;20563;-73
2022/11/16 07:47:54;;;;;;;4.03;2.30;;;12.60;99.90;;;;;;5028341;28;20524;-73
2022/11/16 07:50:38;;;;;;;4.23;2.10;;;12.60;99.90;;;;;;5011307;28;20444;-73
2022/11/16 07:53:04;;;;;;;2.50;2.30;;;12.60;99.90;;;;;;4995106;28;20448;-73
2022/11/16 07:55:31;;;;;;;3.53;2.20;;;12.60;99.90;;;;;;5028079;28;20476;-73
2022/11/16 07:57:58;;;;;;;3.67;2.53;;;12.60;99.90;;;;;;4995328;28;20424;-72
2022/11/16 08:00:27;;;;;;;4.10;2.57;;;12.60;99.90;;;;;;5011410;28;20965;-73
2022/11/16 08:03:05;;;;;;;4.20;2.17;;;12.60;99.90;;;;;;5012712;28;20479;-73
2022/11/16 08:05:31;;;;;;;3.50;2.10;;;12.60;99.90;;;;;;5011415;28;20533;-73
2022/11/16 08:07:57;;;;;;;3.93;2.70;;;12.60;99.90;;;;;;5027817;28;20400;-72
2022/11/16 08:10:28;;;;;;;2.70;2.40;;;12.60;99.90;;;;;;4995239;28;20440;-72
2022/11/16 08:12:57;;;;;;;3.00;2.07;;;12.60;99.90;;;;;;5011147;28;20433;-73
2022/11/16 08:15:25;;;;;;;4.10;2.23;;;12.60;99.90;;;;;;4979200;28;20429;-72
2022/11/16 08:17:55;;;;;;;2.77;2.30;;;12.60;99.90;;;;;;5011342;28;20914;-73
2022/11/16 08:20:28;;;;;;;3.70;2.67;;;12.60;99.90;;;;;;4996021;28;20854;-73
2022/11/16 08:22:58;;;;;;;4.43;2.20;;;12.60;99.90;;;;;;5015454;28;20419;-72
2022/11/16 08:25:27;;;;;;;3.13;2.13;;;12.60;99.90;;;;;;5015217;28;20531;-73
2022/11/16 08:27:56;;;;;;;2.57;2.20;;;12.60;99.90;;;;;;4999020;28;20500;-73
2022/11/16 08:30:22;;;;;;;4.33;2.40;;;12.60;99.90;;;;;;5014317;28;20443;-73
2022/11/16 08:32:48;;;;;;;2.80;2.00;;;12.60;99.90;;;;;;4998037;28;20455;-72
2022/11/16 08:35:22;;;;;;;2.70;2.10;;;12.60;99.90;;;;;;4998210;28;20990;-73
2022/11/16 08:37:48;;;;;;;2.50;2.27;;;12.60;99.90;;;;;;5014268;28;20448;-71
2022/11/16 08:40:17;;;;;;;5.03;2.30;;;12.60;99.90;;;;;;4993102;28;20791;-73
2022/11/16 08:42:45;;;;;;;2.73;2.30;;;12.60;99.90;;;;;;5010588;28;20775;-73
2022/11/16 08:45:12;;;;;;;3.10;2.83;;;12.60;99.90;;;;;;5010967;28;20473;-73
2022/11/16 08:47:37;;;;;;;2.10;1.90;;;12.60;99.90;;;;;;5013832;28;20397;-73
2022/11/16 08:50:10;;;;;;;2.13;1.87;;;12.60;99.90;;;;;;4998690;28;20446;-73
2022/11/16 08:52:37;;;;;;;3.40;2.00;;;12.60;99.90;;;;;;5031074;28;20461;-73
2022/11/16 08:55:09;;;;;;;4.07;2.37;;;12.60;99.90;;;;;;4994918;28;20406;-72
2022/11/16 08:57:38;;;;;;;2.70;2.07;;;12.60;99.90;;;;;;4995167;28;20433;-73
2022/11/16 09:00:13;;;;;;;4.60;2.43;;;12.60;99.90;;;;;;4995586;28;20460;-72
2022/11/16 09:02:39;;;;;;;3.77;2.10;;;12.60;99.90;;;;;;4979592;28;20443;-72
2022/11/16 09:05:06;;;;;;;2.20;1.97;;;12.60;99.90;;;;;;4979529;28;20472;-72
2022/11/16 09:07:35;;;;;;;6.73;2.47;;;12.60;99.90;;;;;;4995561;28;20427;-73
2022/11/16 09:10:01;;;;;;;3.30;2.23;;;12.60;99.90;;;;;;4996565;28;20446;-72
2022/11/16 09:12:34;;;;;;;3.20;2.00;;;12.60;99.90;;;;;;4996531;28;20458;-72
2022/11/16 09:15:00;;;;;;;3.80;2.30;;;12.60;99.90;;;;;;4995431;28;20440;-72
2022/11/16 09:17:28;;;;;;;5.60;2.27;;;12.60;99.90;;;;;;5007582;28;20496;-73
2022/11/16 09:19:59;;;;;;;4.10;1.90;;;12.60;99.90;;;;;;5016011;28;20953;-72
2022/11/16 09:22:27;;;;;;;4.03;2.27;;;12.60;99.90;;;;;;4998763;28;20426;-72
2022/11/16 09:24:53;;;;;;;3.60;2.40;;;12.60;99.90;;;;;;5015404;28;20649;-73
2022/11/16 09:27:25;;;;;;;8.13;2.00;;;12.60;99.90;;;;;;5029899;28;20916;-73
2022/11/16 09:29:55;;;;;;;4.03;2.30;;;12.60;99.90;;;;;;5015637;28;20450;-73
2022/11/16 09:32:27;;;;;;;3.53;2.10;;;12.60;99.90;;;;;;5030991;28;20826;-72
2022/11/16 09:34:56;;;;;;;2.83;1.93;;;12.60;99.90;;;;;;5030946;28;20415;-72
2022/11/16 09:37:24;;;;;;;2.93;1.73;;;12.60;99.90;;;;;;5011333;28;20447;-73
2022/11/16 09:39:51;;;;;;;8.10;2.07;;;12.60;99.90;;;;;;4994735;28;20487;-73
2022/11/16 09:42:53;;;;;;;3.00;2.43;;;12.60;99.90;;;;;;4994704;28;20496;-73
2022/11/16 09:45:47;;;;;;;3.00;1.80;;;12.60;99.90;;;;;;5006980;28;20494;-72
2022/11/16 09:48:15;;;;;;;3.10;2.13;;;12.60;99.90;;;;;;5015102;28;20468;-72
2022/11/16 09:50:55;;;;;;;3.17;2.20;;;12.60;99.90;;;;;;5015215;28;20447;-73
2022/11/16 09:53:54;;;;;;;5.20;2.07;;;12.60;99.90;;;;;;5024939;28;20456;-73
2022/11/16 09:56:24;;;;;;;3.23;1.90;;;12.60;99.90;;;;;;5030485;28;20432;-73
2022/11/16 09:58:53;;;;;;;4.40;2.13;;;12.60;99.90;;;;;;5030548;28;20420;-71
2022/11/16 10:01:27;;;;;;;3.73;1.80;;;12.60;99.90;;;;;;5013934;28;20420;-73
2022/11/16 10:04:14;;;;;;;4.30;2.10;;;12.60;99.90;;;;;;5030161;28;20410;-73
2022/11/16 10:07:34;;;;;;;3.60;2.20;;;12.60;99.90;;;;;;5025173;28;20995;-72
2022/11/16 10:10:02;;;;;;;5.40;1.90;;;12.60;99.90;;;;;;5028780;28;20815;-72
2022/11/16 10:12:42;;;;;;;3.63;2.17;;;12.60;99.90;;;;;;5029307;28;20424;-72
2022/11/16 10:15:40;;;;;;;6.80;2.60;;;12.60;99.90;;;;;;5013904;28;20470;-72
2022/11/16 10:18:15;;;;;;;2.70;1.77;;;12.60;99.90;;;;;;5013608;28;20510;-72
2022/11/16 10:21:21;;;;;;;7.33;2.10;;;12.60;99.90;;;;;;5029885;28;20489;-73
2022/11/16 10:24:30;;;;;;;3.63;1.97;;;12.60;99.90;;;;;;5029379;28;20473;-72
2022/11/16 10:27:15;;;;;;;4.23;2.00;;;12.60;99.90;;;;;;5029919;28;20411;-73
2022/11/16 10:30:21;;;;;;;5.10;2.20;;;12.60;99.90;;;;;;5013422;28;21040;-72
2022/11/16 10:33:18;;;;;;;3.43;2.13;;;12.60;99.90;;;;;;5023745;28;20429;-73
2022/11/16 10:35:53;;;;;;;5.07;1.80;;;12.60;99.90;;;;;;5029926;28;20743;-73
2022/11/16 10:38:26;;;;;;;3.33;2.10;;;12.60;99.90;;;;;;5013217;28;20466;-73
2022/11/16 10:41:05;;;;;;;4.77;2.00;;;12.60;99.90;;;;;;5013228;28;20430;-73
2022/11/16 10:43:36;;;;;;;4.07;1.73;;;12.60;99.90;;;;;;5013637;28;20404;-72
2022/11/16 10:46:27;;;;;;;6.00;2.13;;;12.60;99.90;;;;;;5013085;28;20448;-73
2022/11/16 10:49:10;;;;;;;3.40;1.77;;;12.60;99.90;;;;;;4996838;28;20412;-73
2022/11/16 10:51:39;;;;;;;2.80;1.80;;;12.60;99.90;;;;;;4980577;28;20449;-73
2022/11/16 10:54:17;;;;;;;4.47;2.00;;;12.60;99.90;;;;;;5012907;28;20418;-72
2022/11/16 10:56:47;;;;;;;2.40;1.47;;;12.60;99.90;;;;;;5014142;28;20410;-73
2022/11/16 10:59:17;;;;;;;6.03;2.00;;;12.60;99.90;;;;;;5012889;28;20500;-72
2022/11/16 11:01:53;;;;;;;4.00;2.10;;;12.70;99.90;;;;;;5014024;28;20941;-73
2022/11/16 11:04:28;;;;;;;3.87;1.93;;;12.70;99.90;;;;;;4996513;28;20528;-71
2022/11/16 11:07:15;;;;;;;2.60;1.77;;;12.70;99.90;;;;;;4996342;28;20456;-73
2022/11/16 11:09:43;;;;;;;7.30;2.30;;;12.70;99.90;;;;;;4992627;28;20479;-73
2022/11/16 11:15:05;;;;;;;4.03;2.27;;;12.70;99.90;;;;;;4993926;28;20418;-73
2022/11/16 11:17:34;;;;;;;4.90;2.43;;;12.70;99.90;;;;;;4992585;28;20460;-73
2022/11/16 11:20:05;;;;;;;2.67;1.90;;;12.70;99.90;;;;;;4992547;28;20441;-73
2022/11/16 11:22:34;;;;;;;5.70;1.80;;;12.70;99.90;;;;;;4992683;28;20405;-73
2022/11/16 11:25:07;;;;;;;4.17;1.83;;;12.70;99.90;;;;;;4993632;28;20475;-74
2022/11/16 11:27:34;;;;;;;5.37;2.00;;;12.70;99.90;;;;;;4992279;28;20470;-75
2022/11/16 11:30:03;;;;;;;6.70;2.00;;;12.70;99.90;;;;;;5010987;28;20479;-74
2022/11/16 11:32:37;;;;;;;4.77;1.93;;;12.70;99.90;;;;;;5016144;28;20903;-74
2022/11/16 11:35:05;;;;;;;3.60;1.80;;;12.70;99.90;;;;;;5031922;28;20481;-74
2022/11/16 11:37:37;;;;;;;5.57;2.40;;;12.70;99.90;;;;;;5027279;28;20416;-73
2022/11/16 11:40:21;;;;;;;4.20;2.20;;;12.70;99.90;;;;;;5010938;28;20458;-73
2022/11/16 11:43:11;;;;;;;3.83;1.83;;;12.70;99.90;;;;;;5012150;28;20464;-74
2022/11/16 11:45:53;;;;;;;7.90;2.00;;;12.70;99.90;;;;;;5028078;28;20456;-74
2022/11/16 11:48:48;;;;;;;4.10;2.17;;;12.70;99.90;;;;;;5011945;28;20919;-73
2022/11/16 11:51:34;;;;;;;3.10;1.90;;;12.70;99.90;;;;;;5012628;28;20457;-74
2022/11/16 11:54:05;;;;;;;3.57;1.63;;;12.70;99.90;;;;;;5011491;28;20410;-74
2022/11/16 11:56:33;;;;;;;3.53;2.10;;;12.70;99.90;;;;;;5012103;28;20450;-74
2022/11/16 11:58:59;;;;;;;5.97;2.50;;;12.80;99.90;;;;;;5011407;28;20408;-74
2022/11/16 12:01:45;;;;;;;2.33;1.50;;;12.70;99.90;;;;;;4995318;28;20441;-76
2022/11/16 12:04:24;;;;;;;6.33;2.00;;;12.70;99.90;;;;;;5012506;28;20408;-73
2022/11/16 12:06:58;;;;;;;2.53;1.60;;;12.80;99.90;;;;;;4979779;28;20436;-74
2022/11/16 12:09:30;;;;;;;3.70;1.70;;;12.70;99.90;;;;;;5011319;28;20443;-74
2022/11/16 12:12:23;;;;;;;2.83;1.60;;;12.70;99.90;;;;;;5011969;28;20419;-74
2022/11/16 12:15:29;;;;;;;4.13;1.90;;;12.70;99.90;;;;;;4995571;28;20423;-73
2022/11/16 12:18:24;;;;;;;4.50;1.70;;;12.70;99.90;;;;;;4994918;28;20576;-75
2022/11/16 12:21:15;;;;;;;3.43;1.80;;;12.80;99.90;;;;;;5020526;28;20540;-74
2022/11/16 12:24:10;;;;;;;6.23;2.27;;;12.70;99.90;;;;;;5011216;28;20403;-75
2022/11/16 12:26:48;;;;;;;4.10;1.73;;;12.70;99.90;;;;;;4995048;28;21060;-74
2022/11/16 12:29:30;;;;;;;4.47;2.10;;;12.70;99.90;;;;;;5011758;28;20969;-74
2022/11/16 12:32:28;;;;;;;3.80;1.53;;;12.80;99.90;;;;;;4995438;28;20469;-74
2022/11/16 12:35:35;;;;;;;5.10;1.80;;;12.80;99.90;;;;;;4975704;28;20432;-75
2022/11/16 12:38:24;;;;;;;4.50;1.70;;;12.70;99.90;;;;;;4983339;28;20456;-75
2022/11/16 12:41:04;;;;;;;5.33;2.10;;;12.70;99.90;;;;;;4970210;28;20462;-75
2022/11/16 12:43:41;;;;;;;3.70;1.80;;;12.70;99.90;;;;;;4987291;28;20531;-75
2022/11/16 12:46:38;;;;;;;4.90;2.10;;;12.80;99.90;;;;;;4986661;28;20477;-75
2022/11/16 12:49:47;;;;;;;5.20;1.50;;;12.80;99.90;;;;;;4981790;28;20553;-75
2022/11/16 12:52:13;;;;;;;6.13;1.60;;;12.70;99.90;;;;;;4970994;28;20508;-75
2022/11/16 12:54:59;;;;;;;3.33;1.97;;;12.80;99.90;;;;;;4971472;28;20593;-75
2022/11/16 12:58:01;;;;;;;2.53;1.27;;;12.80;99.90;;;;;;4953182;28;20463;-75
2022/11/16 13:00:30;;;;;;;3.80;1.63;;;12.80;99.90;;;;;;4987666;28;20452;-74
2022/11/16 13:03:30;;;;;;;5.40;1.90;;;12.80;99.90;;;;;;4986657;28;20851;-75
2022/11/16 13:06:12;;;;;;;3.63;1.57;;;12.80;99.90;;;;;;4970625;28;20993;-75
2022/11/16 13:08:45;;;;;;;8.67;2.30;;;12.80;99.90;;;;;;4989165;28;20440;-75
2022/11/16 13:11:21;;;;;;;2.70;1.90;;;12.80;99.90;;;;;;5027991;28;20958;-75
2022/11/16 13:13:54;;;;;;;3.33;1.80;;;12.80;99.90;;;;;;5011599;28;20434;-75
2022/11/16 13:16:23;;;;;;;2.80;1.70;;;12.80;99.90;;;;;;4995398;28;20561;-75
2022/11/16 13:18:52;;;;;;;4.37;1.70;;;12.80;99.90;;;;;;5012002;28;20966;-75
2022/11/16 13:21:35;;;;;;;2.47;2.00;;;12.80;99.90;;;;;;5013243;28;20455;-75
2022/11/16 13:24:24;;;;;;;4.70;2.10;;;12.80;99.90;;;;;;5011575;28;20435;-75
2022/11/16 13:27:05;;;;;;;5.57;1.90;;;12.80;99.90;;;;;;5012486;28;20564;-75
2022/11/16 13:29:45;;;;;;;2.43;1.47;;;12.80;99.90;;;;;;5011766;28;20992;-75
2022/11/16 13:32:26;;;;;;;4.60;1.87;;;12.80;99.90;;;;;;5011304;28;20545;-75
2022/11/16 13:34:56;;;;;;;2.90;1.67;;;12.80;99.90;;;;;;4991612;28;20434;-75
2022/11/16 13:37:37;;;;;;;2.97;2.07;;;12.80;99.90;;;;;;5007411;28;20446;-75
2022/11/16 13:40:03;;;;;;;4.63;1.50;;;12.80;99.90;;;;;;5027931;28;20429;-74
2022/11/16 13:42:35;;;;;;;2.50;2.13;;;12.80;99.90;;;;;;4978726;28;20439;-75
2022/11/16 13:45:21;;;;;;;5.27;1.33;;;12.80;99.90;;;;;;5010693;28;20478;-75
2022/11/16 13:47:56;;;;;;;2.50;1.60;;;12.80;99.90;;;;;;5011501;28;20429;-75
2022/11/16 13:50:31;;;;;;;3.33;1.70;;;12.80;99.90;;;;;;4994323;28;21118;-75
2022/11/16 13:53:12;;;;;;;5.00;1.63;;;12.80;99.90;;;;;;5011246;28;20510;-75
2022/11/16 13:55:45;;;;;;;4.17;1.97;;;12.80;99.90;;;;;;5012375;28;21185;-75
2022/11/16 13:58:19;;;;;;;5.20;1.97;;;12.80;99.90;;;;;;5009449;28;20908;-75
2022/11/16 14:01:18;;;;;;;4.73;1.67;;;12.80;99.90;;;;;;5010862;28;20470;-75
2022/11/16 14:03:45;;;;;;;1.93;1.23;;;12.80;99.90;;;;;;4994326;28;20469;-75
2022/11/16 14:06:18;;;;;;;2.90;1.53;;;12.80;99.90;;;;;;5027729;28;20849;-74
2022/11/16 14:08:56;;;;;;;5.90;1.50;;;12.80;99.90;;;;;;5008925;28;20452;-74
2022/11/16 14:11:34;;;;;;;4.80;1.77;;;12.80;99.90;;;;;;4997092;28;20416;-76
2022/11/16 14:14:05;;;;;;;3.30;1.43;;;12.80;99.90;;;;;;5014310;28;20847;-75
2022/11/16 14:16:50;;;;;;;7.53;1.90;;;12.80;99.90;;;;;;5013046;28;20443;-76